createdAt,value
2022-11-20T00:00:10.007Z,0.29
2022-11-20T00:01:11.741Z,0.28
2022-11-20T00:02:13.569Z,0.28
2022-11-20T00:03:15.200Z,0.28
2022-11-20T00:04:16.949Z,0.27
2022-11-20T00:05:18.682Z,0.27
2022-11-20T00:06:20.426Z,0.27
2022-11-20T00:07:22.248Z,0.27
2022-11-20T00:08:23.886Z,0.27
2022-11-20T00:09:25.621Z,0.27
2022-11-20T00:10:27.358Z,0.27
2022-11-20T00:11:29.070Z,0.27
2022-11-20T00:12:30.814Z,0.27
2022-11-20T00:13:32.558Z,0.27
2022-11-20T00:14:34.305Z,0.28
2022-11-20T00:15:36.017Z,0.28
2022-11-20T00:16:37.760Z,0.29
2022-11-20T00:17:39.480Z,0.28
2022-11-20T00:18:41.225Z,0.28
2022-11-20T00:19:42.941Z,0.29
2022-11-20T00:20:44.670Z,0.3
2022-11-20T00:21:46.411Z,0.3
2022-11-20T00:22:48.151Z,0.3
2022-11-20T00:23:49.876Z,0.3
2022-11-20T00:24:51.610Z,0.3
2022-11-20T00:25:53.367Z,0.3
2022-11-20T00:26:55.063Z,0.3
2022-11-20T00:27:56.813Z,0.31
2022-11-20T00:28:58.551Z,0.32
2022-11-20T00:30:00.274Z,0.32
2022-11-20T00:31:02.010Z,0.33
2022-11-20T00:32:03.741Z,0.34
2022-11-20T00:33:05.569Z,0.34
2022-11-20T00:34:07.233Z,0.34
2022-11-20T00:35:08.970Z,0.34
2022-11-20T00:36:10.681Z,0.36
2022-11-20T00:37:12.417Z,0.35
2022-11-20T00:38:14.139Z,0.36
2022-11-20T00:39:15.877Z,0.37
2022-11-20T00:40:17.599Z,0.37
2022-11-20T00:41:19.412Z,0.36
2022-11-20T00:42:21.071Z,0.35
2022-11-20T00:43:22.806Z,0.36
2022-11-20T00:47:04.314Z,0.37
2022-11-20T00:48:06.040Z,0.38
2022-11-20T00:49:07.792Z,0.37
2022-11-20T00:50:09.500Z,0.38
2022-11-20T00:51:11.249Z,0.38
2022-11-20T00:52:12.986Z,0.4
2022-11-20T00:53:14.739Z,0.39
2022-11-20T00:54:16.443Z,0.4
2022-11-20T00:55:18.158Z,0.4
2022-11-20T00:56:19.926Z,0.4
2022-11-20T00:57:21.656Z,0.4
2022-11-20T00:58:23.372Z,0.4
2022-11-20T00:59:25.111Z,0.4
2022-11-20T01:00:26.844Z,0.42
2022-11-20T01:01:28.613Z,0.42
2022-11-20T01:02:30.301Z,0.43
2022-11-20T01:03:32.053Z,0.43
2022-11-20T01:04:33.791Z,0.44
2022-11-20T01:05:35.508Z,0.44
2022-11-20T01:06:37.257Z,0.44
2022-11-20T01:07:38.996Z,0.46
2022-11-20T01:08:40.725Z,0.46
2022-11-20T01:09:42.448Z,0.47
2022-11-20T01:10:44.189Z,0.48
2022-11-20T01:11:45.921Z,0.49
2022-11-20T01:12:47.657Z,0.49
2022-11-20T01:13:49.389Z,0.51
2022-11-20T01:14:51.124Z,0.5
2022-11-20T01:15:52.841Z,0.51
2022-11-20T01:16:54.558Z,0.51
2022-11-20T01:17:56.316Z,0.51
2022-11-20T01:18:58.055Z,0.51
2022-11-20T01:19:59.779Z,0.52
2022-11-20T01:21:01.505Z,0.51
2022-11-20T01:22:03.244Z,0.5
2022-11-20T01:23:04.990Z,0.51
2022-11-20T01:24:06.732Z,0.49
2022-11-20T01:25:08.470Z,0.5
2022-11-20T01:26:10.165Z,0.49
2022-11-20T01:27:11.913Z,0.49
2022-11-20T01:28:13.650Z,0.48
2022-11-20T01:29:15.387Z,0.48
2022-11-20T01:30:17.103Z,0.47
2022-11-20T01:31:18.832Z,0.47
2022-11-20T01:32:20.573Z,0.46
2022-11-20T01:33:22.295Z,0.47
2022-11-20T01:34:24.052Z,0.46
2022-11-20T01:35:25.776Z,0.47
2022-11-20T01:36:27.502Z,0.48
2022-11-20T01:37:29.247Z,0.47
2022-11-20T01:38:30.968Z,0.48
2022-11-20T01:39:32.713Z,0.48
2022-11-20T01:40:34.437Z,0.47
2022-11-20T01:41:36.196Z,0.48
2022-11-20T01:42:37.928Z,0.48
2022-11-20T01:43:39.652Z,0.49
2022-11-20T01:44:41.404Z,0.49
2022-11-20T01:45:43.119Z,0.5
2022-11-20T01:46:44.834Z,0.51
2022-11-20T01:47:46.579Z,0.51
2022-11-20T01:48:48.328Z,0.51
2022-11-20T01:49:50.041Z,0.52
2022-11-20T01:50:51.775Z,0.53
2022-11-20T01:51:53.517Z,0.53
2022-11-20T01:52:55.261Z,0.53
2022-11-20T01:53:56.998Z,0.55
2022-11-20T01:54:58.717Z,0.55
2022-11-20T01:56:00.460Z,0.57
2022-11-20T01:57:02.162Z,0.56
2022-11-20T01:58:03.917Z,0.57
2022-11-20T01:59:05.663Z,0.58
2022-11-20T02:00:07.382Z,0.58
2022-11-20T02:01:09.170Z,0.57
2022-11-20T02:02:10.829Z,0.58
2022-11-20T02:03:12.562Z,0.57
2022-11-20T02:04:14.321Z,0.58
2022-11-20T02:05:16.043Z,0.59
2022-11-20T02:06:17.768Z,0.59
2022-11-20T02:07:19.571Z,0.59
2022-11-20T02:08:21.253Z,0.59
2022-11-20T02:09:23.527Z,0.61
2022-11-20T02:10:24.692Z,0.6
2022-11-20T02:11:26.461Z,0.61
2022-11-20T02:12:28.235Z,0.61
2022-11-20T02:13:29.912Z,0.61
2022-11-20T02:14:31.861Z,0.61
2022-11-20T02:15:33.368Z,0.61
2022-11-20T02:16:35.100Z,0.62
2022-11-20T02:17:36.861Z,0.61
2022-11-20T02:18:38.594Z,0.61
2022-11-20T02:19:40.310Z,0.61
2022-11-20T02:20:42.047Z,0.62
2022-11-20T02:21:43.774Z,0.61
2022-11-20T02:22:45.509Z,0.61
2022-11-20T02:23:47.239Z,0.62
2022-11-20T02:24:48.992Z,0.6
2022-11-20T02:25:50.701Z,0.61
2022-11-20T02:26:52.457Z,0.6
2022-11-20T02:27:54.174Z,0.59
2022-11-20T02:28:55.937Z,0.6
2022-11-20T02:29:57.641Z,0.59
2022-11-20T02:30:59.368Z,0.59
2022-11-20T02:32:01.098Z,0.6
2022-11-20T02:33:02.845Z,0.6
2022-11-20T02:34:04.587Z,0.6
2022-11-20T02:35:06.315Z,0.59
2022-11-20T02:36:08.117Z,0.6
2022-11-20T02:37:09.865Z,0.59
2022-11-20T02:38:11.522Z,0.6
2022-11-20T02:39:13.260Z,0.6
2022-11-20T02:40:14.972Z,0.6
2022-11-20T02:41:16.705Z,0.6
2022-11-20T02:42:18.451Z,0.61
2022-11-20T02:43:20.173Z,0.61
2022-11-20T02:44:21.922Z,0.62
2022-11-20T02:45:23.663Z,0.62
2022-11-20T02:46:25.372Z,0.65
2022-11-20T02:47:27.121Z,0.65
2022-11-20T02:48:32.693Z,0.66
2022-11-20T02:49:30.601Z,0.66
2022-11-20T02:50:32.309Z,0.67
2022-11-20T02:51:34.064Z,0.68
2022-11-20T02:52:35.793Z,0.69
2022-11-20T02:53:37.526Z,0.7
2022-11-20T02:54:39.227Z,0.7
2022-11-20T02:55:40.972Z,0.72
2022-11-20T02:56:42.694Z,0.71
2022-11-20T02:57:44.465Z,0.72
2022-11-20T02:58:46.205Z,0.73
2022-11-20T02:59:47.904Z,0.73
2022-11-20T03:00:49.656Z,0.74
2022-11-20T03:01:51.411Z,0.74
2022-11-20T03:02:53.111Z,0.74
2022-11-20T03:03:54.863Z,0.74
2022-11-20T03:04:56.580Z,0.74
2022-11-20T03:05:58.325Z,0.74
2022-11-20T03:07:00.132Z,0.74
2022-11-20T03:08:01.778Z,0.74
2022-11-20T03:09:03.523Z,0.73
2022-11-20T03:10:05.242Z,0.72
2022-11-20T03:11:07.044Z,0.73
2022-11-20T03:12:08.718Z,0.72
2022-11-20T03:13:10.667Z,0.71
2022-11-20T03:14:12.185Z,0.7
2022-11-20T03:15:13.915Z,0.69
2022-11-20T03:16:15.669Z,0.67
2022-11-20T03:17:17.394Z,0.67
2022-11-20T03:18:19.125Z,0.65
2022-11-20T03:19:21.303Z,0.65
2022-11-20T03:20:22.573Z,0.63
2022-11-20T03:21:24.336Z,0.62
2022-11-20T03:22:26.051Z,0.62
2022-11-20T03:23:27.773Z,0.61
2022-11-20T03:24:29.525Z,0.6
2022-11-20T03:25:31.262Z,0.59
2022-11-20T03:26:33.015Z,0.57
2022-11-20T03:27:34.728Z,0.58
2022-11-20T03:28:36.468Z,0.59
2022-11-20T03:29:38.174Z,0.58
2022-11-20T03:30:39.918Z,0.57
2022-11-20T03:31:41.668Z,0.58
2022-11-20T03:32:43.388Z,0.59
2022-11-20T03:33:45.128Z,0.58
2022-11-20T03:34:46.858Z,0.58
2022-11-20T03:35:48.581Z,0.59
2022-11-20T03:36:50.349Z,0.58
2022-11-20T03:37:52.045Z,0.59
2022-11-20T03:38:53.783Z,0.59
2022-11-20T03:39:55.514Z,0.59
2022-11-20T03:40:57.229Z,0.6
2022-11-20T03:41:59.002Z,0.59
2022-11-20T03:43:00.720Z,0.6
2022-11-20T03:44:02.448Z,0.61
2022-11-20T03:45:04.182Z,0.6
2022-11-20T03:46:05.924Z,0.6
2022-11-20T03:47:07.703Z,0.59
2022-11-20T03:48:09.387Z,0.59
2022-11-20T03:49:11.106Z,0.59
2022-11-20T03:50:12.863Z,0.59
2022-11-20T03:51:14.583Z,0.57
2022-11-20T03:52:16.316Z,0.57
2022-11-20T03:53:18.055Z,0.56
2022-11-20T03:54:19.779Z,0.56
2022-11-20T03:55:21.539Z,0.57
2022-11-20T03:56:23.262Z,0.57
2022-11-20T03:57:24.997Z,0.57
2022-11-20T03:58:26.721Z,0.57
2022-11-20T03:59:28.452Z,0.57
2022-11-20T04:00:30.185Z,0.57
2022-11-20T04:01:32.033Z,0.58
2022-11-20T04:02:33.674Z,0.58
2022-11-20T04:03:35.407Z,0.58
2022-11-20T04:04:37.139Z,0.58
2022-11-20T04:05:38.849Z,0.58
2022-11-20T04:06:40.578Z,0.59
2022-11-20T04:07:42.387Z,0.59
2022-11-20T04:08:44.051Z,0.6
2022-11-20T04:09:45.797Z,0.6
2022-11-20T04:10:47.544Z,0.61
2022-11-20T04:11:49.413Z,0.6
2022-11-20T04:12:51.079Z,0.61
2022-11-20T04:13:52.711Z,0.61
2022-11-20T04:14:54.450Z,0.62
2022-11-20T04:15:56.195Z,0.62
2022-11-20T04:16:57.929Z,0.61
2022-11-20T04:17:59.662Z,0.61
2022-11-20T04:19:01.378Z,0.61
2022-11-20T04:20:03.119Z,0.61
2022-11-20T04:21:04.859Z,0.6
2022-11-20T04:22:06.573Z,0.61
2022-11-20T04:23:08.346Z,0.6
2022-11-20T04:24:10.079Z,0.62
2022-11-20T04:25:11.797Z,0.62
2022-11-20T04:26:13.531Z,0.62
2022-11-20T04:27:15.253Z,0.62
2022-11-20T04:28:16.988Z,0.63
2022-11-20T04:29:19.124Z,0.64
2022-11-20T04:30:20.467Z,0.63
2022-11-20T04:31:22.216Z,0.64
2022-11-20T04:32:23.918Z,0.64
2022-11-20T04:33:27.904Z,0.65
2022-11-20T04:34:27.396Z,0.64
2022-11-20T04:35:29.122Z,0.64
2022-11-20T04:36:30.861Z,0.64
2022-11-20T04:37:32.585Z,0.64
2022-11-20T04:38:34.346Z,0.65
2022-11-20T04:39:36.056Z,0.64
2022-11-20T04:40:37.811Z,0.64
2022-11-20T04:41:39.524Z,0.65
2022-11-20T04:42:41.292Z,0.64
2022-11-20T04:43:43.021Z,0.64
2022-11-20T04:44:44.836Z,0.64
2022-11-20T04:45:46.462Z,0.64
2022-11-20T04:46:48.204Z,0.64
2022-11-20T04:47:49.940Z,0.64
2022-11-20T04:48:51.683Z,0.64
2022-11-20T04:49:53.442Z,0.63
2022-11-20T04:50:55.137Z,0.65
2022-11-20T04:51:56.876Z,0.65
2022-11-20T04:52:58.594Z,0.66
2022-11-20T04:54:00.339Z,0.65
2022-11-20T04:55:02.061Z,0.66
2022-11-20T04:56:03.804Z,0.67
2022-11-20T04:57:07.898Z,0.66
2022-11-20T04:58:07.308Z,0.68
2022-11-20T04:59:09.015Z,0.69
2022-11-20T05:00:10.738Z,0.69
2022-11-20T05:01:12.488Z,0.7
2022-11-20T05:02:14.181Z,0.71
2022-11-20T05:03:15.937Z,0.71
2022-11-20T05:04:17.673Z,0.71
2022-11-20T05:05:19.407Z,0.71
2022-11-20T05:06:21.115Z,0.72
2022-11-20T05:07:22.959Z,0.71
2022-11-20T05:08:24.596Z,0.72
2022-11-20T05:09:26.346Z,0.71
2022-11-20T05:10:28.052Z,0.71
2022-11-20T05:11:29.785Z,0.71
2022-11-20T05:12:31.529Z,0.7
2022-11-20T05:13:33.312Z,0.71
2022-11-20T05:14:35.013Z,0.7
2022-11-20T05:15:36.740Z,0.7
2022-11-20T05:16:38.473Z,0.71
2022-11-20T05:17:40.194Z,0.7
2022-11-20T05:18:41.941Z,0.7
2022-11-20T05:19:43.664Z,0.71
2022-11-20T05:20:45.437Z,0.7
2022-11-20T05:21:47.109Z,0.7
2022-11-20T05:22:48.852Z,0.71
2022-11-20T05:23:50.604Z,0.71
2022-11-20T05:24:52.349Z,0.71
2022-11-20T05:25:58.689Z,0.72
2022-11-20T05:26:55.807Z,0.73
2022-11-20T05:27:57.533Z,0.74
2022-11-20T05:28:59.265Z,0.73
2022-11-20T05:30:01.012Z,0.73
2022-11-20T05:31:02.728Z,0.74
2022-11-20T05:32:04.478Z,0.76
2022-11-20T05:33:06.209Z,0.76
2022-11-20T05:34:07.994Z,0.77
2022-11-20T05:35:09.686Z,0.76
2022-11-20T05:36:11.413Z,0.76
2022-11-20T05:37:13.153Z,0.77
2022-11-20T05:38:14.877Z,0.78
2022-11-20T05:39:16.608Z,0.77
2022-11-20T05:40:18.357Z,0.78
2022-11-20T05:41:20.066Z,0.79
2022-11-20T05:42:21.811Z,0.8
2022-11-20T05:43:23.545Z,0.82
2022-11-20T05:44:25.256Z,0.82
2022-11-20T05:45:27.008Z,0.83
2022-11-20T05:46:29.591Z,0.85
2022-11-20T05:47:30.465Z,0.86
2022-11-20T05:48:32.209Z,0.86
2022-11-20T05:49:33.929Z,0.87
2022-11-20T05:50:35.692Z,0.89
2022-11-20T05:51:37.411Z,0.9
2022-11-20T05:52:39.131Z,0.9
2022-11-20T05:53:45.287Z,0.89
2022-11-20T05:54:42.623Z,0.9
2022-11-20T05:55:44.359Z,0.89
2022-11-20T05:56:46.080Z,0.89
2022-11-20T05:57:47.819Z,0.89
2022-11-20T05:58:49.536Z,0.89
2022-11-20T05:59:51.279Z,0.88
2022-11-20T06:00:53.019Z,0.89
2022-11-20T06:01:54.742Z,0.89
2022-11-20T06:02:56.542Z,0.88
2022-11-20T06:03:58.223Z,0.9
2022-11-20T06:05:00.053Z,0.89
2022-11-20T06:06:01.717Z,0.89
2022-11-20T06:07:03.492Z,0.89
2022-11-20T06:08:05.152Z,0.9
2022-11-20T06:09:06.880Z,0.9
2022-11-20T06:10:08.632Z,0.89
2022-11-20T06:11:10.359Z,0.89
2022-11-20T06:12:12.078Z,0.89
2022-11-20T06:13:13.800Z,0.88
2022-11-20T06:14:15.564Z,0.89
2022-11-20T06:15:17.286Z,0.89
2022-11-20T06:16:19.030Z,0.89
2022-11-20T06:17:20.841Z,0.9
2022-11-20T06:18:22.484Z,0.89
2022-11-20T06:19:24.377Z,0.9
2022-11-20T06:20:25.969Z,0.91
2022-11-20T06:21:27.719Z,0.9
2022-11-20T06:22:29.416Z,0.92
2022-11-20T06:23:31.154Z,0.92
2022-11-20T06:24:32.875Z,0.93
2022-11-20T06:25:34.623Z,0.93
2022-11-20T06:26:36.349Z,0.94
2022-11-20T06:27:38.311Z,0.96
2022-11-20T06:28:39.829Z,0.96
2022-11-20T06:29:41.552Z,0.98
2022-11-20T06:30:43.278Z,0.98
2022-11-20T06:31:45.022Z,0.98
2022-11-20T06:32:46.759Z,0.99
2022-11-20T06:33:48.481Z,0.98
2022-11-20T06:34:50.214Z,0.99
2022-11-20T06:35:56.858Z,0.98
2022-11-20T06:36:53.709Z,0.98
2022-11-20T06:37:55.406Z,0.97
2022-11-20T06:38:57.161Z,0.97
2022-11-20T06:39:58.882Z,0.97
2022-11-20T06:41:00.774Z,0.96
2022-11-20T06:42:02.359Z,0.97
2022-11-20T06:43:04.082Z,0.98
2022-11-20T06:44:05.969Z,0.98
2022-11-20T06:45:07.545Z,0.98
2022-11-20T06:46:09.292Z,0.99
2022-11-20T06:47:11.046Z,1
2022-11-20T06:48:12.759Z,1.01
2022-11-20T06:49:14.499Z,1.03
2022-11-20T06:50:16.224Z,1.05
2022-11-20T06:51:17.954Z,1.05
2022-11-20T06:52:19.701Z,1.06
2022-11-20T06:53:21.421Z,1.07
2022-11-20T06:54:23.166Z,1.07
2022-11-20T06:55:24.887Z,1.09
2022-11-20T06:56:26.619Z,1.11
2022-11-20T06:57:28.361Z,1.11
2022-11-20T06:58:30.083Z,1.12
2022-11-20T06:59:31.827Z,1.13
2022-11-20T07:00:33.631Z,1.14
2022-11-20T07:01:35.284Z,1.16
2022-11-20T07:02:37.027Z,1.16
2022-11-20T07:03:38.755Z,1.17
2022-11-20T07:04:40.485Z,1.19
2022-11-20T07:05:42.220Z,1.19
2022-11-20T07:06:43.959Z,1.2
2022-11-20T07:07:45.684Z,1.21
2022-11-20T07:08:47.408Z,1.23
2022-11-20T07:09:49.162Z,1.24
2022-11-20T07:10:50.879Z,1.24
2022-11-20T07:11:52.615Z,1.27
2022-11-20T07:12:54.370Z,1.28
2022-11-20T07:13:56.094Z,1.28
2022-11-20T07:14:57.820Z,1.29
2022-11-20T07:15:59.554Z,1.3
2022-11-20T07:17:01.292Z,1.31
2022-11-20T07:18:03.126Z,1.32
2022-11-20T07:19:04.776Z,1.32
2022-11-20T07:20:06.489Z,1.33
2022-11-20T07:21:08.236Z,1.34
2022-11-20T07:22:09.961Z,1.34
2022-11-20T07:23:11.750Z,1.36
2022-11-20T07:24:13.437Z,1.37
2022-11-20T07:25:15.160Z,1.38
2022-11-20T07:26:16.893Z,1.4
2022-11-20T07:27:18.618Z,1.4
2022-11-20T07:28:20.367Z,1.41
2022-11-20T07:29:22.282Z,1.41
2022-11-20T07:30:23.818Z,1.43
2022-11-20T07:31:25.552Z,1.42
2022-11-20T07:32:27.309Z,1.43
2022-11-20T07:33:29.154Z,1.44
2022-11-20T07:34:30.777Z,1.45
2022-11-20T07:35:32.502Z,1.46
2022-11-20T07:36:34.241Z,1.47
2022-11-20T07:37:35.959Z,1.47
2022-11-20T07:38:37.717Z,1.48
2022-11-20T07:39:39.429Z,1.5
2022-11-20T07:40:41.184Z,1.5
2022-11-20T07:41:42.899Z,1.51
2022-11-20T07:42:44.625Z,1.51
2022-11-20T07:43:46.363Z,1.51
2022-11-20T07:44:48.099Z,1.53
2022-11-20T07:45:49.817Z,1.54
2022-11-20T07:46:51.554Z,1.54
2022-11-20T07:47:53.346Z,1.55
2022-11-20T07:48:55.098Z,1.55
2022-11-20T07:49:56.770Z,1.55
2022-11-20T07:50:58.485Z,1.56
2022-11-20T07:52:04.466Z,1.56
2022-11-20T07:53:01.945Z,1.57
2022-11-20T07:54:03.770Z,1.58
2022-11-20T07:55:05.412Z,1.58
2022-11-20T07:56:07.160Z,1.59
2022-11-20T07:57:08.890Z,1.59
2022-11-20T07:58:10.620Z,1.6
2022-11-20T07:59:12.380Z,1.61
2022-11-20T08:00:14.092Z,1.62
2022-11-20T08:01:15.869Z,1.63
2022-11-20T08:02:17.573Z,1.64
2022-11-20T08:03:24.587Z,1.66
2022-11-20T08:04:21.043Z,1.67
2022-11-20T08:05:22.750Z,1.69
2022-11-20T08:06:24.474Z,1.72
2022-11-20T08:07:26.327Z,1.74
2022-11-20T08:08:27.961Z,1.77
2022-11-20T08:09:29.700Z,1.78
2022-11-20T08:10:31.419Z,1.8
2022-11-20T08:11:33.166Z,1.83
2022-11-20T08:12:34.928Z,1.84
2022-11-20T08:13:36.628Z,1.85
2022-11-20T08:14:38.367Z,1.87
2022-11-20T08:15:40.100Z,1.89
2022-11-20T08:16:41.823Z,1.9
2022-11-20T08:17:56.732Z,1.92
2022-11-20T08:18:45.283Z,1.94
2022-11-20T08:19:47.044Z,1.95
2022-11-20T08:20:48.761Z,1.96
2022-11-20T08:21:50.562Z,1.98
2022-11-20T08:22:52.218Z,1.99
2022-11-20T08:23:53.958Z,2.01
2022-11-20T08:24:55.731Z,2.02
2022-11-20T08:25:57.432Z,2.02
2022-11-20T08:26:59.161Z,2.02
2022-11-20T08:28:04.184Z,2
2022-11-20T08:29:02.668Z,2.01
2022-11-20T08:30:04.444Z,2.01
2022-11-20T08:31:06.095Z,2.01
2022-11-20T08:32:07.815Z,2.02
2022-11-20T08:33:09.556Z,2.05
2022-11-20T08:34:14.924Z,2.07
2022-11-20T08:35:13.041Z,2.07
2022-11-20T08:36:14.769Z,2.09
2022-11-20T08:37:16.524Z,2.1
2022-11-20T08:38:18.244Z,2.1
2022-11-20T08:39:20.435Z,2.12
2022-11-20T08:40:21.683Z,2.12
2022-11-20T08:41:23.421Z,2.13
2022-11-20T08:42:25.149Z,2.14
2022-11-20T08:43:26.876Z,2.15
2022-11-20T08:44:28.605Z,2.17
2022-11-20T08:45:34.065Z,2.18
2022-11-20T08:46:32.073Z,2.19
2022-11-20T08:47:33.796Z,2.2
2022-11-20T08:48:35.535Z,2.21
2022-11-20T08:49:37.258Z,2.22
2022-11-20T08:50:39.014Z,2.22
2022-11-20T08:51:40.735Z,2.23
2022-11-20T08:52:42.465Z,2.24
2022-11-20T08:53:44.205Z,2.25
2022-11-20T08:54:45.929Z,2.26
2022-11-20T08:55:47.680Z,2.26
2022-11-20T08:56:49.389Z,2.27
2022-11-20T08:57:51.314Z,2.28
2022-11-20T08:59:18.394Z,2.3
2022-11-20T09:00:05.522Z,2.31
2022-11-20T09:00:56.403Z,2.32
2022-11-20T09:01:58.150Z,2.33
2022-11-20T09:02:59.787Z,2.34
2022-11-20T09:04:01.540Z,2.35
2022-11-20T09:05:03.282Z,2.35
2022-11-20T09:06:05.001Z,2.36
2022-11-20T09:07:06.811Z,2.37
2022-11-20T09:08:08.469Z,2.37
2022-11-20T09:09:10.204Z,2.38
2022-11-20T09:11:13.654Z,2.38
2022-11-20T09:12:15.430Z,2.38
2022-11-20T09:13:17.133Z,2.38
2022-11-20T09:14:18.847Z,2.38
2022-11-20T09:15:20.625Z,2.38
2022-11-20T09:16:22.319Z,2.38
2022-11-20T09:17:24.054Z,2.38
2022-11-20T09:18:25.785Z,2.38
2022-11-20T09:19:35.528Z,2.39
2022-11-20T09:20:29.248Z,2.39
2022-11-20T09:21:30.995Z,2.4
2022-11-20T09:22:32.733Z,2.4
2022-11-20T09:23:34.455Z,2.41
2022-11-20T09:24:36.182Z,2.43
2022-11-20T09:25:37.925Z,2.43
2022-11-20T09:26:39.646Z,2.43
2022-11-20T09:27:41.378Z,2.45
2022-11-20T09:28:43.104Z,2.46
2022-11-20T09:29:44.867Z,2.45
2022-11-20T09:30:46.598Z,2.46
2022-11-20T09:31:48.313Z,2.46
2022-11-20T09:32:50.088Z,2.46
2022-11-20T09:33:51.774Z,2.47
2022-11-20T09:34:53.538Z,2.47
2022-11-20T09:35:55.244Z,2.48
2022-11-20T09:36:57.159Z,2.47
2022-11-20T09:37:58.716Z,2.47
2022-11-20T09:39:00.438Z,2.49
2022-11-20T09:40:02.194Z,2.48
2022-11-20T09:41:03.918Z,2.49
2022-11-20T09:42:05.656Z,2.5
2022-11-20T09:43:07.385Z,2.5
2022-11-20T09:44:09.127Z,2.5
2022-11-20T09:45:10.862Z,2.52
2022-11-20T09:46:12.580Z,2.53
2022-11-20T09:47:14.308Z,2.53
2022-11-20T09:48:16.086Z,2.53
2022-11-20T09:49:17.788Z,2.55
2022-11-20T09:50:19.533Z,2.56
2022-11-20T09:51:21.285Z,2.57
2022-11-20T09:52:22.995Z,2.6
2022-11-20T09:53:24.718Z,2.61
2022-11-20T09:54:26.463Z,2.63
2022-11-20T09:55:28.206Z,2.63
2022-11-20T09:56:29.925Z,2.65
2022-11-20T09:57:31.664Z,2.67
2022-11-20T09:58:33.393Z,2.67
2022-11-20T09:59:35.123Z,2.7
2022-11-20T10:00:36.925Z,2.7
2022-11-20T10:01:38.590Z,2.71
2022-11-20T10:02:40.318Z,2.72
2022-11-20T10:03:42.067Z,2.73
2022-11-20T10:04:43.776Z,2.74
2022-11-20T10:05:45.508Z,2.74
2022-11-20T10:06:52.022Z,2.74
2022-11-20T10:07:48.993Z,2.75
2022-11-20T10:08:50.708Z,2.75
2022-11-20T10:09:52.446Z,2.75
2022-11-20T10:10:54.198Z,2.76
2022-11-20T10:11:55.923Z,2.77
2022-11-20T10:12:57.645Z,2.76
2022-11-20T10:13:59.384Z,2.77
2022-11-20T10:15:01.121Z,2.78
2022-11-20T10:16:02.867Z,2.79
2022-11-20T10:17:04.596Z,2.79
2022-11-20T10:18:06.308Z,2.79
2022-11-20T10:19:08.044Z,2.8
2022-11-20T10:20:09.784Z,2.81
2022-11-20T10:21:11.507Z,2.81
2022-11-20T10:22:13.242Z,2.81
2022-11-20T10:23:14.979Z,2.82
2022-11-20T10:24:16.739Z,2.81
2022-11-20T10:25:18.442Z,2.81
2022-11-20T10:26:20.221Z,2.82
2022-11-20T10:27:21.913Z,2.81
2022-11-20T10:28:23.649Z,2.8
2022-11-20T10:29:25.614Z,2.81
2022-11-20T10:30:27.118Z,2.81
2022-11-20T10:31:28.852Z,2.81
2022-11-20T10:32:30.576Z,2.82
2022-11-20T10:33:49.960Z,2.81
2022-11-20T10:34:34.063Z,2.83
2022-11-20T10:35:35.802Z,2.83
2022-11-20T10:36:37.511Z,2.85
2022-11-20T10:37:39.248Z,2.84
2022-11-20T10:38:40.978Z,2.85
2022-11-20T10:39:42.742Z,2.88
2022-11-20T10:40:44.439Z,2.9
2022-11-20T10:41:46.214Z,2.92
2022-11-20T10:42:47.923Z,2.94
2022-11-20T10:43:49.668Z,2.96
2022-11-20T10:44:56.361Z,2.99
2022-11-20T10:45:53.119Z,3.02
2022-11-20T10:46:54.859Z,3.04
2022-11-20T10:47:56.582Z,3.06
2022-11-20T10:48:58.323Z,3.1
2022-11-20T10:50:00.052Z,3.12
2022-11-20T10:51:01.792Z,3.16
2022-11-20T10:52:03.513Z,3.18
2022-11-20T10:53:05.284Z,3.2
2022-11-20T10:54:06.998Z,3.22
2022-11-20T10:55:08.738Z,3.25
2022-11-20T10:56:10.446Z,3.27
2022-11-20T10:57:12.185Z,3.28
2022-11-20T10:58:13.914Z,3.31
2022-11-20T10:59:15.652Z,3.34
2022-11-20T11:00:17.388Z,3.35
2022-11-20T11:01:19.354Z,3.36
2022-11-20T11:02:20.841Z,3.38
2022-11-20T11:03:22.588Z,3.39
2022-11-20T11:04:24.329Z,3.41
2022-11-20T11:05:26.062Z,3.41
2022-11-20T11:06:27.775Z,3.42
2022-11-20T11:07:29.565Z,3.43
2022-11-20T11:08:31.245Z,3.44
2022-11-20T11:09:32.979Z,3.46
2022-11-20T11:10:34.706Z,3.46
2022-11-20T11:11:36.438Z,3.46
2022-11-20T11:12:38.182Z,3.46
2022-11-20T11:13:39.910Z,3.45
2022-11-20T11:14:41.639Z,3.46
2022-11-20T11:15:43.391Z,3.45
2022-11-20T11:16:45.109Z,3.44
2022-11-20T11:17:46.830Z,3.43
2022-11-20T11:18:48.576Z,3.43
2022-11-20T11:19:50.336Z,3.42
2022-11-20T11:20:52.031Z,3.41
2022-11-20T11:21:55.678Z,3.41
2022-11-20T11:22:55.494Z,3.41
2022-11-20T11:24:03.697Z,3.42
2022-11-20T11:24:59.003Z,3.41
2022-11-20T11:26:00.706Z,3.42
2022-11-20T11:27:02.431Z,3.43
2022-11-20T11:28:04.167Z,3.44
2022-11-20T11:29:05.904Z,3.47
2022-11-20T11:30:07.641Z,3.49
2022-11-20T11:31:09.385Z,3.5
2022-11-20T11:32:11.106Z,3.52
2022-11-20T11:33:12.829Z,3.53
2022-11-20T11:34:14.573Z,3.54
2022-11-20T11:35:16.305Z,3.54
2022-11-20T11:36:18.033Z,3.56
2022-11-20T11:37:19.768Z,3.56
2022-11-20T11:38:21.506Z,3.57
2022-11-20T11:39:23.521Z,3.57
2022-11-20T11:40:25.540Z,3.57
2022-11-20T11:41:26.710Z,3.57
2022-11-20T11:42:28.443Z,3.58
2022-11-20T11:43:33.886Z,3.58
2022-11-20T11:44:31.901Z,3.58
2022-11-20T11:45:33.645Z,3.58
2022-11-20T11:46:35.371Z,3.6
2022-11-20T11:47:37.111Z,3.6
2022-11-20T11:48:38.838Z,3.62
2022-11-20T11:49:40.578Z,3.64
2022-11-20T11:50:42.319Z,3.65
2022-11-20T11:51:44.038Z,3.67
2022-11-20T11:52:45.773Z,3.68
2022-11-20T11:53:47.549Z,3.7
2022-11-20T11:54:49.242Z,3.71
2022-11-20T11:55:50.970Z,3.7
2022-11-20T11:56:52.704Z,3.72
2022-11-20T11:57:54.460Z,3.71
2022-11-20T11:58:56.188Z,3.7
2022-11-20T11:59:57.917Z,3.69
2022-11-20T12:00:59.645Z,3.68
2022-11-20T12:02:01.431Z,3.69
2022-11-20T12:03:03.126Z,3.7
2022-11-20T12:04:04.862Z,3.7
2022-11-20T12:05:06.576Z,3.7
2022-11-20T12:06:08.312Z,3.69
2022-11-20T12:07:31.420Z,3.7
2022-11-20T12:08:12.842Z,3.7
2022-11-20T12:09:13.511Z,3.69
2022-11-20T12:10:15.253Z,3.69
2022-11-20T12:11:17.058Z,3.69
2022-11-20T12:12:18.718Z,3.7
2022-11-20T12:13:20.439Z,3.69
2022-11-20T12:14:22.182Z,3.7
2022-11-20T12:15:23.908Z,3.71
2022-11-20T12:16:25.675Z,3.74
2022-11-20T12:17:27.372Z,3.75
2022-11-20T12:18:29.110Z,3.79
2022-11-20T12:19:30.851Z,3.8
2022-11-20T12:20:32.582Z,3.82
2022-11-20T12:21:34.336Z,3.85
2022-11-20T12:22:36.074Z,3.86
2022-11-20T12:23:37.800Z,3.87
2022-11-20T12:24:39.505Z,3.89
2022-11-20T12:25:41.258Z,3.93
2022-11-20T12:26:42.988Z,3.96
2022-11-20T12:27:44.721Z,4
2022-11-20T12:28:46.435Z,4.03
2022-11-20T12:29:48.177Z,4.05
2022-11-20T12:30:49.924Z,4.09
2022-11-20T12:31:51.653Z,4.12
2022-11-20T12:32:53.382Z,4.15
2022-11-20T12:33:55.114Z,4.16
2022-11-20T12:34:56.841Z,4.17
2022-11-20T12:35:58.571Z,4.19
2022-11-20T12:37:00.321Z,4.21
2022-11-20T12:38:02.053Z,4.22
2022-11-20T12:39:03.776Z,4.24
2022-11-20T12:40:05.525Z,4.25
2022-11-20T12:41:07.325Z,4.25
2022-11-20T12:42:09.065Z,4.26
2022-11-20T12:43:10.705Z,4.26
2022-11-20T12:44:12.446Z,4.25
2022-11-20T12:45:14.180Z,4.23
2022-11-20T12:46:15.911Z,4.22
2022-11-20T12:47:17.667Z,4.21
2022-11-20T12:48:19.379Z,4.19
2022-11-20T12:49:21.574Z,4.18
2022-11-20T12:50:22.849Z,4.16
2022-11-20T12:51:24.575Z,4.15
2022-11-20T12:52:26.333Z,4.14
2022-11-20T12:53:28.050Z,4.13
2022-11-20T12:54:29.789Z,4.13
2022-11-20T12:55:31.523Z,4.1
2022-11-20T12:56:33.238Z,4.08
2022-11-20T12:57:34.991Z,4.05
2022-11-20T12:58:36.719Z,4.04
2022-11-20T12:59:38.455Z,4.01
2022-11-20T13:00:40.158Z,3.99
2022-11-20T13:01:42.107Z,3.99
2022-11-20T13:02:43.772Z,3.99
2022-11-20T13:03:45.374Z,3.96
2022-11-20T13:04:47.114Z,3.95
2022-11-20T13:05:48.846Z,3.94
2022-11-20T13:06:50.571Z,3.93
2022-11-20T13:07:52.340Z,3.92
2022-11-20T13:08:54.083Z,3.92
2022-11-20T13:09:55.766Z,3.93
2022-11-20T13:10:57.515Z,3.93
2022-11-20T13:11:59.243Z,3.94
2022-11-20T13:13:00.976Z,3.95
2022-11-20T13:14:02.709Z,3.95
2022-11-20T13:15:04.409Z,3.96
2022-11-20T13:16:06.158Z,3.95
2022-11-20T13:17:07.877Z,3.96
2022-11-20T13:18:09.631Z,3.98
2022-11-20T13:19:11.353Z,3.99
2022-11-20T13:20:13.077Z,4.01
2022-11-20T13:21:14.807Z,4.03
2022-11-20T13:22:16.546Z,4.05
2022-11-20T13:23:18.302Z,4.09
2022-11-20T13:24:20.607Z,4.11
2022-11-20T13:25:21.743Z,4.14
2022-11-20T13:26:23.485Z,4.17
2022-11-20T13:27:25.210Z,4.19
2022-11-20T13:28:27.035Z,4.23
2022-11-20T13:29:28.728Z,4.27
2022-11-20T13:30:30.632Z,4.29
2022-11-20T13:31:32.145Z,4.31
2022-11-20T13:32:33.888Z,4.34
2022-11-20T13:33:35.619Z,4.37
2022-11-20T13:34:37.347Z,4.4
2022-11-20T13:35:39.089Z,4.42
2022-11-20T13:36:40.814Z,4.44
2022-11-20T13:37:43.865Z,4.47
2022-11-20T13:38:44.278Z,4.5
2022-11-20T13:39:46.027Z,4.52
2022-11-20T13:40:47.794Z,4.55
2022-11-20T13:41:49.476Z,4.58
2022-11-20T13:42:51.311Z,4.61
2022-11-20T13:43:52.965Z,4.63
2022-11-20T13:44:54.670Z,4.67
2022-11-20T13:45:56.422Z,4.68
2022-11-20T13:46:58.149Z,4.71
2022-11-20T13:47:59.894Z,4.74
2022-11-20T13:49:01.626Z,4.76